DLH35X EDDH-EDDF
Flight info
| Callsign | DLH35X |
|---|---|
| Flight time | 0h 46m |
| Altitude | 32000 |
| Route | AMLUH2C AMLUH M852 DENIX DCT RIMET T157 KERAX KERAX5A |
| Aircraft | A321/M-SDE3FGHIRWY/LB1 |
Departure
| Time | 2026-05-06 14:08 |
|---|---|
| Airport | Hamburg Helmut Schmidt Airport (EDDH) |
Arrival
| Time | 2026-05-06 14:55 |
|---|---|
| Airport | Frankfurt Main Airport (EDDF) |
| Time | Latitude | Longitude | Altitude | Speed | Heading |
|---|---|---|---|---|---|
| 2026-05-06 13:28 | 53.63206 | 10.00368 | 49 ft | 0 kts | 86° |
| 2026-05-06 13:49 | 53.63205 | 10.00351 | 48 ft | 4 kts | 86° |
| 2026-05-06 13:50 | 53.63204 | 10.00305 | 48 ft | 4 kts | 86° |
| 2026-05-06 13:50 | 53.63202 | 10.00261 | 48 ft | 4 kts | 86° |
| 2026-05-06 13:50 | 53.63204 | 10.00217 | 48 ft | 4 kts | 111° |
| 2026-05-06 13:50 | 53.63218 | 10.00183 | 46 ft | 4 kts | 158° |
| 2026-05-06 13:51 | 53.63227 | 10.00178 | 44 ft | 0 kts | 176° |
| 2026-05-06 13:53 | 53.63224 | 10.00178 | 47 ft | 2 kts | 176° |
| 2026-05-06 13:53 | 53.63197 | 10.00181 | 46 ft | 6 kts | 176° |
| 2026-05-06 13:53 | 53.63142 | 10.00188 | 48 ft | 10 kts | 176° |
| 2026-05-06 13:53 | 53.63064 | 10.00177 | 46 ft | 12 kts | 204° |
| 2026-05-06 13:54 | 53.62994 | 10.00102 | 48 ft | 12 kts | 213° |
| 2026-05-06 13:54 | 53.62918 | 10.00035 | 48 ft | 12 kts | 190° |
| 2026-05-06 13:54 | 53.62836 | 9.99994 | 48 ft | 13 kts | 210° |
| 2026-05-06 13:54 | 53.62752 | 9.99911 | 46 ft | 15 kts | 210° |
| 2026-05-06 13:55 | 53.62662 | 9.99821 | 46 ft | 15 kts | 221° |
| 2026-05-06 13:55 | 53.62628 | 9.99663 | 47 ft | 15 kts | 259° |
| 2026-05-06 13:55 | 53.62608 | 9.99494 | 47 ft | 15 kts | 259° |
| 2026-05-06 13:55 | 53.62589 | 9.99323 | 47 ft | 15 kts | 259° |
| 2026-05-06 13:56 | 53.62569 | 9.99149 | 47 ft | 15 kts | 259° |
| 2026-05-06 13:56 | 53.62548 | 9.98964 | 47 ft | 17 kts | 259° |
| 2026-05-06 13:56 | 53.62527 | 9.98771 | 47 ft | 17 kts | 259° |
| 2026-05-06 13:56 | 53.62504 | 9.98573 | 46 ft | 17 kts | 259° |
| 2026-05-06 13:57 | 53.62481 | 9.98371 | 47 ft | 18 kts | 259° |
| 2026-05-06 13:57 | 53.62458 | 9.98173 | 47 ft | 16 kts | 259° |
| 2026-05-06 13:57 | 53.62440 | 9.98012 | 47 ft | 10 kts | 259° |
| 2026-05-06 13:57 | 53.62431 | 9.97922 | 46 ft | 5 kts | 260° |
| 2026-05-06 13:58 | 53.62429 | 9.97891 | 45 ft | 0 kts | 265° |
| 2026-05-06 13:58 | 53.62428 | 9.97879 | 45 ft | 3 kts | 266° |
| 2026-05-06 13:59 | 53.62429 | 9.97868 | 45 ft | 0 kts | 276° |
| 2026-05-06 14:06 | 53.62433 | 9.97848 | 44 ft | 5 kts | 291° |
| 2026-05-06 14:06 | 53.62471 | 9.97784 | 41 ft | 12 kts | 321° |
| 2026-05-06 14:06 | 53.62507 | 9.97752 | 41 ft | 5 kts | 7° |
| 2026-05-06 14:06 | 53.62520 | 9.97773 | 41 ft | 0 kts | 52° |
| 2026-05-06 14:07 | 53.62521 | 9.97776 | 41 ft | 2 kts | 52° |
| 2026-05-06 14:07 | 53.62624 | 9.97989 | 42 ft | 62 kts | 50° |
| 2026-05-06 14:08 | 53.63074 | 9.98895 | 46 ft | 136 kts | 50° |
| 2026-05-06 14:08 | 53.63752 | 10.00273 | 618 ft | 157 kts | 50° |
| 2026-05-06 14:08 | 53.64452 | 10.01703 | 1620 ft | 157 kts | 50° |
| 2026-05-06 14:08 | 53.65141 | 10.03108 | 2568 ft | 153 kts | 51° |
| 2026-05-06 14:09 | 53.65812 | 10.04476 | 3249 ft | 151 kts | 51° |
| 2026-05-06 14:09 | 53.66508 | 10.05898 | 3608 ft | 170 kts | 52° |
| 2026-05-06 14:09 | 53.67318 | 10.07525 | 3913 ft | 192 kts | 51° |
| 2026-05-06 14:09 | 53.68225 | 10.09343 | 4112 ft | 214 kts | 51° |
| 2026-05-06 14:10 | 53.69239 | 10.11379 | 4345 ft | 239 kts | 51° |
| 2026-05-06 14:10 | 53.70334 | 10.13579 | 4998 ft | 250 kts | 51° |
| 2026-05-06 14:10 | 53.71465 | 10.15852 | 5803 ft | 256 kts | 51° |
| 2026-05-06 14:10 | 53.72616 | 10.18189 | 6574 ft | 261 kts | 52° |
| 2026-05-06 14:11 | 53.73512 | 10.20826 | 7450 ft | 260 kts | 73° |
| 2026-05-06 14:11 | 53.73607 | 10.23900 | 8086 ft | 270 kts | 102° |
| 2026-05-06 14:11 | 53.72847 | 10.26826 | 8758 ft | 278 kts | 122° |
| 2026-05-06 14:11 | 53.71537 | 10.29210 | 9461 ft | 285 kts | 144° |
| 2026-05-06 14:12 | 53.69701 | 10.30616 | 9811 ft | 292 kts | 167° |
| 2026-05-06 14:12 | 53.67697 | 10.31213 | 10011 ft | 294 kts | 170° |
| 2026-05-06 14:12 | 53.65706 | 10.31734 | 10774 ft | 293 kts | 170° |
| 2026-05-06 14:12 | 53.63695 | 10.32249 | 11577 ft | 293 kts | 171° |
| 2026-05-06 14:13 | 53.61678 | 10.32767 | 12340 ft | 294 kts | 170° |
| 2026-05-06 14:13 | 53.59652 | 10.33294 | 13086 ft | 295 kts | 170° |
| 2026-05-06 14:13 | 53.57628 | 10.33825 | 13868 ft | 294 kts | 170° |
| 2026-05-06 14:13 | 53.55604 | 10.34358 | 14515 ft | 296 kts | 170° |
| 2026-05-06 14:14 | 53.53556 | 10.34902 | 15088 ft | 300 kts | 171° |
| 2026-05-06 14:14 | 53.51482 | 10.35454 | 15699 ft | 303 kts | 171° |
| 2026-05-06 14:14 | 53.49393 | 10.36010 | 16331 ft | 306 kts | 172° |
| 2026-05-06 14:14 | 53.47282 | 10.36570 | 16917 ft | 308 kts | 172° |
| 2026-05-06 14:15 | 53.45156 | 10.37139 | 17532 ft | 310 kts | 173° |
| 2026-05-06 14:15 | 53.43015 | 10.37716 | 18110 ft | 313 kts | 173° |
| 2026-05-06 14:15 | 53.40886 | 10.38286 | 18598 ft | 316 kts | 173° |
| 2026-05-06 14:15 | 53.38707 | 10.38870 | 19060 ft | 318 kts | 173° |
| 2026-05-06 14:16 | 53.36511 | 10.39457 | 19541 ft | 321 kts | 173° |
| 2026-05-06 14:16 | 53.34297 | 10.40045 | 19999 ft | 324 kts | 173° |
| 2026-05-06 14:16 | 53.32806 | 10.40437 | 20141 ft | 332 kts | 173° |
| 2026-05-06 14:16 | 53.29671 | 10.41257 | 20315 ft | 350 kts | 173° |
| 2026-05-06 14:17 | 53.27220 | 10.41901 | 20435 ft | 363 kts | 172° |
| 2026-05-06 14:17 | 53.24687 | 10.42572 | 20571 ft | 374 kts | 172° |
| 2026-05-06 14:17 | 53.22079 | 10.43267 | 20698 ft | 385 kts | 172° |
| 2026-05-06 14:17 | 53.19435 | 10.43967 | 20827 ft | 395 kts | 172° |
| 2026-05-06 14:18 | 53.16690 | 10.44694 | 20959 ft | 405 kts | 172° |
| 2026-05-06 14:18 | 53.13868 | 10.45371 | 21083 ft | 414 kts | 175° |
| 2026-05-06 14:18 | 53.10966 | 10.45446 | 21217 ft | 421 kts | 184° |
| 2026-05-06 14:18 | 53.08020 | 10.45034 | 21342 ft | 429 kts | 185° |
| 2026-05-06 14:19 | 53.05018 | 10.44607 | 21560 ft | 435 kts | 185° |
| 2026-05-06 14:19 | 53.01996 | 10.44184 | 21859 ft | 437 kts | 185° |
| 2026-05-06 14:19 | 52.99987 | 10.43907 | 22072 ft | 439 kts | 185° |
| 2026-05-06 14:19 | 52.96934 | 10.43493 | 22362 ft | 441 kts | 185° |
| 2026-05-06 14:20 | 52.93870 | 10.43084 | 22659 ft | 443 kts | 185° |
| 2026-05-06 14:20 | 52.89782 | 10.42533 | 23074 ft | 446 kts | 185° |
| 2026-05-06 14:20 | 52.86683 | 10.42111 | 23374 ft | 448 kts | 185° |
| 2026-05-06 14:20 | 52.83574 | 10.41690 | 23641 ft | 449 kts | 185° |
| 2026-05-06 14:21 | 52.81464 | 10.41406 | 23792 ft | 451 kts | 185° |
| 2026-05-06 14:21 | 52.78376 | 10.40987 | 24063 ft | 453 kts | 184° |
| 2026-05-06 14:21 | 52.75234 | 10.40563 | 24352 ft | 453 kts | 184° |
| 2026-05-06 14:21 | 52.72086 | 10.40135 | 24587 ft | 454 kts | 184° |
| 2026-05-06 14:22 | 52.68934 | 10.39707 | 24809 ft | 455 kts | 184° |
| 2026-05-06 14:22 | 52.65778 | 10.39280 | 24997 ft | 456 kts | 184° |
| 2026-05-06 14:22 | 52.62601 | 10.38851 | 25178 ft | 458 kts | 184° |
| 2026-05-06 14:22 | 52.59428 | 10.38422 | 25458 ft | 457 kts | 184° |
| 2026-05-06 14:23 | 52.56265 | 10.37991 | 25763 ft | 455 kts | 184° |
| 2026-05-06 14:23 | 52.53114 | 10.37563 | 26025 ft | 455 kts | 185° |
| 2026-05-06 14:23 | 52.49952 | 10.37139 | 26274 ft | 456 kts | 185° |
| 2026-05-06 14:23 | 52.46786 | 10.36718 | 26566 ft | 456 kts | 185° |
| 2026-05-06 14:24 | 52.43670 | 10.36307 | 26862 ft | 455 kts | 185° |
| 2026-05-06 14:24 | 52.40516 | 10.35891 | 27176 ft | 454 kts | 185° |
| 2026-05-06 14:24 | 52.37366 | 10.35474 | 27462 ft | 454 kts | 185° |
| 2026-05-06 14:24 | 52.34222 | 10.35057 | 27744 ft | 453 kts | 185° |
| 2026-05-06 14:25 | 52.31082 | 10.34639 | 28031 ft | 452 kts | 185° |
| 2026-05-06 14:25 | 52.27951 | 10.34217 | 28381 ft | 451 kts | 186° |
| 2026-05-06 14:25 | 52.24831 | 10.33796 | 28721 ft | 449 kts | 186° |
| 2026-05-06 14:25 | 52.21723 | 10.33381 | 29021 ft | 448 kts | 186° |
| 2026-05-06 14:26 | 52.18618 | 10.32973 | 29314 ft | 447 kts | 186° |
| 2026-05-06 14:26 | 52.15560 | 10.32572 | 29593 ft | 446 kts | 186° |
| 2026-05-06 14:26 | 52.12464 | 10.32163 | 29790 ft | 447 kts | 186° |
| 2026-05-06 14:26 | 52.09369 | 10.31758 | 29808 ft | 446 kts | 186° |
| 2026-05-06 14:27 | 52.03186 | 10.30958 | 29792 ft | 446 kts | 186° |
| 2026-05-06 14:27 | 51.96992 | 10.30148 | 29784 ft | 446 kts | 186° |
| 2026-05-06 14:28 | 51.90816 | 10.29342 | 29779 ft | 441 kts | 187° |
| 2026-05-06 14:28 | 51.84854 | 10.28565 | 29783 ft | 429 kts | 187° |
| 2026-05-06 14:29 | 51.81906 | 10.28181 | 29550 ft | 419 kts | 187° |
| 2026-05-06 14:29 | 51.79036 | 10.27811 | 29260 ft | 408 kts | 187° |
| 2026-05-06 14:29 | 51.76218 | 10.27448 | 28985 ft | 411 kts | 187° |
| 2026-05-06 14:29 | 51.73320 | 10.27069 | 28696 ft | 425 kts | 187° |
| 2026-05-06 14:30 | 51.70345 | 10.26680 | 28422 ft | 431 kts | 187° |
| 2026-05-06 14:30 | 51.67350 | 10.26291 | 28144 ft | 432 kts | 187° |
| 2026-05-06 14:30 | 51.64361 | 10.25904 | 27867 ft | 431 kts | 187° |
| 2026-05-06 14:30 | 51.61378 | 10.25519 | 27595 ft | 429 kts | 187° |
| 2026-05-06 14:31 | 51.58408 | 10.25139 | 27305 ft | 428 kts | 187° |
| 2026-05-06 14:31 | 51.55446 | 10.24729 | 27038 ft | 426 kts | 190° |
| 2026-05-06 14:31 | 51.52614 | 10.23523 | 26760 ft | 420 kts | 202° |
| 2026-05-06 14:31 | 51.49931 | 10.21846 | 26518 ft | 419 kts | 203° |
| 2026-05-06 14:32 | 51.47224 | 10.20134 | 26253 ft | 418 kts | 203° |
| 2026-05-06 14:32 | 51.44527 | 10.18421 | 25996 ft | 416 kts | 203° |
| 2026-05-06 14:32 | 51.41839 | 10.16708 | 25743 ft | 415 kts | 203° |
| 2026-05-06 14:32 | 51.39163 | 10.15000 | 25491 ft | 414 kts | 203° |
| 2026-05-06 14:33 | 51.36494 | 10.13301 | 25224 ft | 412 kts | 204° |
| 2026-05-06 14:33 | 51.33825 | 10.11611 | 24977 ft | 413 kts | 204° |
| 2026-05-06 14:33 | 51.31154 | 10.09928 | 24774 ft | 412 kts | 203° |
| 2026-05-06 14:33 | 51.28489 | 10.08255 | 24762 ft | 412 kts | 204° |
| 2026-05-06 14:34 | 51.25817 | 10.06577 | 24767 ft | 412 kts | 204° |
| 2026-05-06 14:34 | 51.23185 | 10.04919 | 24766 ft | 413 kts | 204° |
| 2026-05-06 14:34 | 51.20514 | 10.03236 | 24766 ft | 413 kts | 204° |
| 2026-05-06 14:34 | 51.17845 | 10.01558 | 24775 ft | 412 kts | 203° |
| 2026-05-06 14:35 | 51.15180 | 9.99890 | 24757 ft | 412 kts | 203° |
| 2026-05-06 14:35 | 51.12503 | 9.98223 | 24716 ft | 414 kts | 203° |
| 2026-05-06 14:35 | 51.09818 | 9.96549 | 24017 ft | 413 kts | 203° |
| 2026-05-06 14:35 | 51.07158 | 9.94889 | 23087 ft | 407 kts | 204° |
| 2026-05-06 14:36 | 51.04544 | 9.93259 | 22503 ft | 400 kts | 203° |
| 2026-05-06 14:36 | 51.02010 | 9.91681 | 21981 ft | 392 kts | 203° |
| 2026-05-06 14:36 | 50.99491 | 9.90120 | 21439 ft | 386 kts | 203° |
| 2026-05-06 14:36 | 50.97007 | 9.88584 | 20915 ft | 380 kts | 203° |
| 2026-05-06 14:37 | 50.94562 | 9.87071 | 20404 ft | 375 kts | 203° |
| 2026-05-06 14:37 | 50.92148 | 9.85576 | 19911 ft | 370 kts | 203° |
| 2026-05-06 14:37 | 50.89770 | 9.84101 | 19431 ft | 365 kts | 202° |
| 2026-05-06 14:37 | 50.87413 | 9.82638 | 18975 ft | 363 kts | 202° |
| 2026-05-06 14:38 | 50.85067 | 9.81189 | 18518 ft | 361 kts | 202° |
| 2026-05-06 14:38 | 50.82736 | 9.79753 | 18086 ft | 359 kts | 202° |
| 2026-05-06 14:38 | 50.80410 | 9.78319 | 17609 ft | 364 kts | 202° |
| 2026-05-06 14:38 | 50.78001 | 9.76837 | 17144 ft | 376 kts | 202° |
| 2026-05-06 14:39 | 50.75560 | 9.75338 | 16689 ft | 377 kts | 202° |
| 2026-05-06 14:39 | 50.73124 | 9.73841 | 16198 ft | 375 kts | 202° |
| 2026-05-06 14:39 | 50.70730 | 9.72371 | 15731 ft | 373 kts | 202° |
| 2026-05-06 14:39 | 50.68317 | 9.70894 | 15238 ft | 371 kts | 202° |
| 2026-05-06 14:40 | 50.65918 | 9.69425 | 14753 ft | 369 kts | 202° |
| 2026-05-06 14:40 | 50.63535 | 9.67968 | 14248 ft | 366 kts | 202° |
| 2026-05-06 14:40 | 50.61162 | 9.66521 | 13753 ft | 364 kts | 202° |
| 2026-05-06 14:40 | 50.58809 | 9.65084 | 13193 ft | 362 kts | 202° |
| 2026-05-06 14:41 | 50.56473 | 9.63659 | 12678 ft | 359 kts | 202° |
| 2026-05-06 14:41 | 50.54154 | 9.62246 | 12162 ft | 356 kts | 202° |
| 2026-05-06 14:41 | 50.52012 | 9.60498 | 11616 ft | 350 kts | 217° |
| 2026-05-06 14:41 | 50.50195 | 9.57993 | 11002 ft | 346 kts | 223° |
| 2026-05-06 14:42 | 50.48459 | 9.55411 | 10776 ft | 345 kts | 226° |
| 2026-05-06 14:42 | 50.46819 | 9.52651 | 10754 ft | 345 kts | 227° |
| 2026-05-06 14:42 | 50.45264 | 9.49915 | 10747 ft | 325 kts | 228° |
| 2026-05-06 14:42 | 50.43819 | 9.47324 | 10759 ft | 306 kts | 229° |
| 2026-05-06 14:43 | 50.42462 | 9.44888 | 10754 ft | 288 kts | 229° |
| 2026-05-06 14:43 | 50.41172 | 9.42576 | 10734 ft | 278 kts | 228° |
| 2026-05-06 14:43 | 50.39919 | 9.40342 | 10385 ft | 275 kts | 228° |
| 2026-05-06 14:43 | 50.38653 | 9.38097 | 9978 ft | 275 kts | 228° |
| 2026-05-06 14:44 | 50.37383 | 9.35861 | 9614 ft | 274 kts | 228° |
| 2026-05-06 14:44 | 50.36122 | 9.33640 | 9217 ft | 272 kts | 228° |
| 2026-05-06 14:44 | 50.34871 | 9.31436 | 8859 ft | 269 kts | 228° |
| 2026-05-06 14:45 | 50.32395 | 9.27084 | 8080 ft | 266 kts | 228° |
| 2026-05-06 14:45 | 50.31166 | 9.24922 | 7678 ft | 265 kts | 228° |
| 2026-05-06 14:45 | 50.29945 | 9.22774 | 7316 ft | 264 kts | 228° |
| 2026-05-06 14:45 | 50.28735 | 9.20651 | 7114 ft | 260 kts | 228° |
| 2026-05-06 14:46 | 50.27526 | 9.18533 | 6986 ft | 261 kts | 228° |
| 2026-05-06 14:46 | 50.26319 | 9.16421 | 6854 ft | 261 kts | 228° |
| 2026-05-06 14:46 | 50.25123 | 9.14329 | 6742 ft | 262 kts | 228° |
| 2026-05-06 14:46 | 50.23909 | 9.12211 | 6620 ft | 261 kts | 228° |
| 2026-05-06 14:47 | 50.22696 | 9.10095 | 6484 ft | 262 kts | 228° |
| 2026-05-06 14:47 | 50.21484 | 9.07981 | 6115 ft | 261 kts | 227° |
| 2026-05-06 14:47 | 50.20272 | 9.05871 | 5687 ft | 261 kts | 228° |
| 2026-05-06 14:47 | 50.19062 | 9.03767 | 5309 ft | 259 kts | 228° |
| 2026-05-06 14:48 | 50.17861 | 9.01676 | 4992 ft | 255 kts | 227° |
| 2026-05-06 14:48 | 50.16699 | 8.99659 | 4907 ft | 243 kts | 228° |
| 2026-05-06 14:48 | 50.15606 | 8.97762 | 4921 ft | 228 kts | 228° |
| 2026-05-06 14:48 | 50.14667 | 8.95827 | 4925 ft | 223 kts | 242° |
| 2026-05-06 14:49 | 50.14109 | 8.93598 | 4927 ft | 225 kts | 249° |
| 2026-05-06 14:49 | 50.13577 | 8.91312 | 4923 ft | 223 kts | 249° |
| 2026-05-06 14:49 | 50.13045 | 8.89046 | 4926 ft | 223 kts | 248° |
| 2026-05-06 14:49 | 50.12525 | 8.86835 | 4915 ft | 208 kts | 248° |
| 2026-05-06 14:50 | 50.12030 | 8.84767 | 4820 ft | 203 kts | 248° |
| 2026-05-06 14:50 | 50.11546 | 8.82732 | 4561 ft | 196 kts | 248° |
| 2026-05-06 14:50 | 50.11086 | 8.80783 | 4293 ft | 188 kts | 249° |
| 2026-05-06 14:50 | 50.10643 | 8.78907 | 4024 ft | 181 kts | 248° |
| 2026-05-06 14:51 | 50.10213 | 8.77085 | 3779 ft | 179 kts | 249° |
| 2026-05-06 14:51 | 50.09790 | 8.75296 | 3526 ft | 177 kts | 250° |
| 2026-05-06 14:51 | 50.09366 | 8.73506 | 3263 ft | 174 kts | 249° |
| 2026-05-06 14:51 | 50.08942 | 8.71714 | 3019 ft | 177 kts | 250° |
| 2026-05-06 14:52 | 50.08516 | 8.69915 | 2773 ft | 176 kts | 250° |
| 2026-05-06 14:52 | 50.08093 | 8.68132 | 2522 ft | 173 kts | 250° |
| 2026-05-06 14:52 | 50.07694 | 8.66453 | 2284 ft | 158 kts | 250° |
| 2026-05-06 14:52 | 50.07325 | 8.64899 | 2067 ft | 151 kts | 251° |
| 2026-05-06 14:53 | 50.06967 | 8.63391 | 1844 ft | 148 kts | 250° |
| 2026-05-06 14:53 | 50.06607 | 8.61877 | 1641 ft | 148 kts | 252° |
| 2026-05-06 14:53 | 50.06250 | 8.60373 | 1432 ft | 151 kts | 251° |
| 2026-05-06 14:53 | 50.05892 | 8.58870 | 1200 ft | 149 kts | 249° |
| 2026-05-06 14:54 | 50.05542 | 8.57390 | 990 ft | 146 kts | 250° |
| 2026-05-06 14:54 | 50.05188 | 8.55901 | 777 ft | 146 kts | 248° |
| 2026-05-06 14:54 | 50.04837 | 8.54420 | 547 ft | 148 kts | 251° |
| 2026-05-06 14:54 | 50.04474 | 8.52924 | 364 ft | 146 kts | 250° |
| 2026-05-06 14:55 | 50.04198 | 8.51757 | 336 ft | 75 kts | 249° |
| 2026-05-06 14:55 | 50.04063 | 8.51214 | 329 ft | 31 kts | 247° |
| 2026-05-06 14:55 | 50.03945 | 8.50967 | 325 ft | 24 kts | 221° |
| 2026-05-06 14:55 | 50.03865 | 8.50863 | 326 ft | 7 kts | 218° |
| 2026-05-06 14:56 | 50.03822 | 8.50835 | 331 ft | 6 kts | 186° |
| 2026-05-06 14:56 | 50.03786 | 8.50870 | 332 ft | 11 kts | 122° |
| 2026-05-06 14:56 | 50.03811 | 8.51047 | 333 ft | 21 kts | 70° |
| 2026-05-06 14:56 | 50.03860 | 8.51256 | 333 ft | 21 kts | 69° |
| 2026-05-06 14:57 | 50.03911 | 8.51469 | 331 ft | 21 kts | 70° |
| 2026-05-06 14:57 | 50.03962 | 8.51681 | 335 ft | 21 kts | 69° |
| 2026-05-06 14:57 | 50.04013 | 8.51893 | 334 ft | 21 kts | 69° |
| 2026-05-06 14:57 | 50.04062 | 8.52095 | 339 ft | 20 kts | 70° |
| 2026-05-06 14:58 | 50.04107 | 8.52287 | 352 ft | 18 kts | 70° |
| 2026-05-06 14:58 | 50.04150 | 8.52467 | 351 ft | 17 kts | 70° |
| 2026-05-06 14:58 | 50.04195 | 8.52653 | 354 ft | 21 kts | 70° |
| 2026-05-06 14:58 | 50.04252 | 8.52893 | 357 ft | 26 kts | 70° |
| 2026-05-06 14:59 | 50.04316 | 8.53159 | 361 ft | 27 kts | 69° |
| 2026-05-06 14:59 | 50.04374 | 8.53402 | 373 ft | 21 kts | 69° |
| 2026-05-06 14:59 | 50.04402 | 8.53613 | 375 ft | 21 kts | 84° |
| 2026-05-06 14:59 | 50.04419 | 8.53872 | 375 ft | 27 kts | 84° |
| 2026-05-06 15:00 | 50.04439 | 8.54170 | 375 ft | 28 kts | 84° |
| 2026-05-06 15:00 | 50.04454 | 8.54426 | 371 ft | 21 kts | 87° |
| 2026-05-06 15:00 | 50.04398 | 8.54661 | 366 ft | 26 kts | 130° |
| 2026-05-06 15:00 | 50.04235 | 8.54813 | 358 ft | 30 kts | 160° |
| 2026-05-06 15:01 | 50.04071 | 8.54910 | 356 ft | 17 kts | 160° |
| 2026-05-06 15:01 | 50.03985 | 8.54960 | 358 ft | 13 kts | 158° |
| 2026-05-06 15:01 | 50.03922 | 8.54997 | 358 ft | 6 kts | 159° |
| 2026-05-06 15:01 | 50.03897 | 8.55012 | 355 ft | 6 kts | 160° |
| 2026-05-06 15:02 | 50.03845 | 8.55065 | 354 ft | 12 kts | 115° |
| 2026-05-06 15:02 | 50.03869 | 8.55202 | 356 ft | 15 kts | 70° |
| 2026-05-06 15:02 | 50.03909 | 8.55369 | 355 ft | 17 kts | 69° |
| 2026-05-06 15:02 | 50.03950 | 8.55542 | 351 ft | 18 kts | 70° |
| 2026-05-06 15:03 | 50.03992 | 8.55720 | 350 ft | 16 kts | 70° |
| 2026-05-06 15:03 | 50.04027 | 8.55864 | 358 ft | 13 kts | 69° |
| 2026-05-06 15:03 | 50.04056 | 8.55985 | 355 ft | 12 kts | 69° |
| 2026-05-06 15:03 | 50.04086 | 8.56109 | 356 ft | 13 kts | 70° |
| 2026-05-06 15:04 | 50.04116 | 8.56238 | 359 ft | 11 kts | 70° |
| 2026-05-06 15:04 | 50.04163 | 8.56283 | 353 ft | 7 kts | 351° |
| 2026-05-06 15:04 | 50.04204 | 8.56262 | 359 ft | 7 kts | 340° |
| 2026-05-06 15:04 | 50.04256 | 8.56231 | 361 ft | 9 kts | 340° |
| 2026-05-06 15:05 | 50.04293 | 8.56184 | 363 ft | 5 kts | 281° |
| 2026-05-06 15:05 | 50.04290 | 8.56122 | 355 ft | 7 kts | 270° |
| 2026-05-06 15:05 | 50.04334 | 8.56060 | 358 ft | 10 kts | 339° |
| 2026-05-06 15:05 | 50.04396 | 8.56028 | 361 ft | 9 kts | 343° |
| 2026-05-06 15:06 | 50.04442 | 8.56080 | 359 ft | 10 kts | 66° |
| 2026-05-06 15:06 | 50.04468 | 8.56185 | 361 ft | 11 kts | 69° |
| 2026-05-06 15:06 | 50.04477 | 8.56237 | 359 ft | 3 kts | 99° |
| 2026-05-06 15:06 | 50.04456 | 8.56254 | 363 ft | 4 kts | 160° |
| 2026-05-06 15:07 | 50.04435 | 8.56266 | 360 ft | 2 kts | 161° |
| 2026-05-06 15:07 | 50.04422 | 8.56273 | 361 ft | 2 kts | 162° |
| 2026-05-06 15:07 | 50.04418 | 8.56274 | 360 ft | 0 kts | 162° |